sensor_id;sensor_type;location;lat;lon;timestamp;temperature;humidity
7155;DHT22;3619;53.784;10.440;2023-02-28T00:00:09;2.70;99.90
7155;DHT22;3619;53.784;10.440;2023-02-28T00:02:36;2.60;99.90
7155;DHT22;3619;53.784;10.440;2023-02-28T00:05:04;2.70;99.90
7155;DHT22;3619;53.784;10.440;2023-02-28T00:07:34;2.70;99.90
7155;DHT22;3619;53.784;10.440;2023-02-28T00:10:00;2.70;99.90
7155;DHT22;3619;53.784;10.440;2023-02-28T00:12:27;2.60;99.90
7155;DHT22;3619;53.784;10.440;2023-02-28T00:14:55;2.70;99.90
7155;DHT22;3619;53.784;10.440;2023-02-28T00:17:22;2.70;99.90
7155;DHT22;3619;53.784;10.440;2023-02-28T00:19:51;2.60;99.90
7155;DHT22;3619;53.784;10.440;2023-02-28T00:22:19;2.60;99.90
7155;DHT22;3619;53.784;10.440;2023-02-28T00:24:46;2.50;99.90
7155;DHT22;3619;53.784;10.440;2023-02-28T00:27:16;2.50;99.90
7155;DHT22;3619;53.784;10.440;2023-02-28T00:29:43;2.60;99.90
7155;DHT22;3619;53.784;10.440;2023-02-28T00:32:13;2.50;99.90
7155;DHT22;3619;53.784;10.440;2023-02-28T00:34:50;2.40;99.90
7155;DHT22;3619;53.784;10.440;2023-02-28T00:37:19;2.40;99.90
7155;DHT22;3619;53.784;10.440;2023-02-28T00:39:49;2.30;99.90
7155;DHT22;3619;53.784;10.440;2023-02-28T00:42:19;2.30;99.90
7155;DHT22;3619;53.784;10.440;2023-02-28T00:44:46;2.40;99.90
7155;DHT22;3619;53.784;10.440;2023-02-28T00:47:15;2.50;99.90
7155;DHT22;3619;53.784;10.440;2023-02-28T00:49:42;2.40;99.90
7155;DHT22;3619;53.784;10.440;2023-02-28T00:52:09;2.40;99.90
7155;DHT22;3619;53.784;10.440;2023-02-28T00:54:35;2.50;99.90
7155;DHT22;3619;53.784;10.440;2023-02-28T00:57:02;2.50;99.90
7155;DHT22;3619;53.784;10.440;2023-02-28T00:59:29;2.40;99.90
7155;DHT22;3619;53.784;10.440;2023-02-28T01:01:56;2.40;99.90
7155;DHT22;3619;53.784;10.440;2023-02-28T01:04:24;2.30;99.90
7155;DHT22;3619;53.784;10.440;2023-02-28T01:06:53;2.30;99.90
7155;DHT22;3619;53.784;10.440;2023-02-28T01:09:20;2.20;99.90
7155;DHT22;3619;53.784;10.440;2023-02-28T01:11:47;2.30;99.90
7155;DHT22;3619;53.784;10.440;2023-02-28T01:14:15;2.50;99.90
7155;DHT22;3619;53.784;10.440;2023-02-28T01:16:43;2.40;99.90
7155;DHT22;3619;53.784;10.440;2023-02-28T01:19:09;2.50;99.90
7155;DHT22;3619;53.784;10.440;2023-02-28T01:21:38;2.40;99.90
7155;DHT22;3619;53.784;10.440;2023-02-28T01:24:05;2.40;99.90
7155;DHT22;3619;53.784;10.440;2023-02-28T01:26:35;2.40;99.90
7155;DHT22;3619;53.784;10.440;2023-02-28T01:29:02;2.50;99.90
7155;DHT22;3619;53.784;10.440;2023-02-28T01:31:32;2.40;99.90
7155;DHT22;3619;53.784;10.440;2023-02-28T01:33:59;2.40;99.90
7155;DHT22;3619;53.784;10.440;2023-02-28T01:36:26;2.30;99.90
7155;DHT22;3619;53.784;10.440;2023-02-28T01:38:54;2.30;99.90
7155;DHT22;3619;53.784;10.440;2023-02-28T01:41:22;2.30;99.90
7155;DHT22;3619;53.784;10.440;2023-02-28T01:43:57;2.20;99.90
7155;DHT22;3619;53.784;10.440;2023-02-28T01:46:24;2.20;99.90
7155;DHT22;3619;53.784;10.440;2023-02-28T01:48:54;2.10;99.90
7155;DHT22;3619;53.784;10.440;2023-02-28T01:51:26;2.10;99.90
7155;DHT22;3619;53.784;10.440;2023-02-28T01:53:58;2.10;99.90
7155;DHT22;3619;53.784;10.440;2023-02-28T01:56:29;2.00;99.90
7155;DHT22;3619;53.784;10.440;2023-02-28T01:58:57;1.90;99.90
7155;DHT22;3619;53.784;10.440;2023-02-28T02:01:25;1.90;99.90
7155;DHT22;3619;53.784;10.440;2023-02-28T02:03:56;2.10;99.90
7155;DHT22;3619;53.784;10.440;2023-02-28T02:06:30;2.20;99.90
7155;DHT22;3619;53.784;10.440;2023-02-28T02:09:01;2.20;99.90
7155;DHT22;3619;53.784;10.440;2023-02-28T02:11:28;2.20;99.90
7155;DHT22;3619;53.784;10.440;2023-02-28T02:14:21;2.20;99.90
7155;DHT22;3619;53.784;10.440;2023-02-28T02:17:04;2.20;99.90
7155;DHT22;3619;53.784;10.440;2023-02-28T02:25:49;2.20;99.90
7155;DHT22;3619;53.784;10.440;2023-02-28T02:31:46;2.10;99.90
7155;DHT22;3619;53.784;10.440;2023-02-28T02:34:37;2.20;99.90
7155;DHT22;3619;53.784;10.440;2023-02-28T02:37:13;2.20;99.90
7155;DHT22;3619;53.784;10.440;2023-02-28T02:39:47;2.10;99.90
7155;DHT22;3619;53.784;10.440;2023-02-28T02:42:22;2.10;99.90
7155;DHT22;3619;53.784;10.440;2023-02-28T02:44:56;2.10;99.90
7155;DHT22;3619;53.784;10.440;2023-02-28T02:47:28;2.10;99.90
7155;DHT22;3619;53.784;10.440;2023-02-28T02:50:02;2.10;99.90
7155;DHT22;3619;53.784;10.440;2023-02-28T02:52:35;2.00;99.90
7155;DHT22;3619;53.784;10.440;2023-02-28T02:55:04;2.00;99.90
7155;DHT22;3619;53.784;10.440;2023-02-28T02:57:34;1.90;99.90
7155;DHT22;3619;53.784;10.440;2023-02-28T03:00:05;1.80;99.90
7155;DHT22;3619;53.784;10.440;2023-02-28T03:02:35;1.70;99.90
7155;DHT22;3619;53.784;10.440;2023-02-28T03:05:11;1.60;99.90
7155;DHT22;3619;53.784;10.440;2023-02-28T03:07:41;1.60;99.90
7155;DHT22;3619;53.784;10.440;2023-02-28T03:10:34;1.50;99.90
7155;DHT22;3619;53.784;10.440;2023-02-28T03:13:12;1.40;99.90
7155;DHT22;3619;53.784;10.440;2023-02-28T03:15:54;1.50;99.90
7155;DHT22;3619;53.784;10.440;2023-02-28T03:18:29;1.50;99.90
7155;DHT22;3619;53.784;10.440;2023-02-28T03:21:06;1.30;99.90
7155;DHT22;3619;53.784;10.440;2023-02-28T03:23:41;1.10;99.90
7155;DHT22;3619;53.784;10.440;2023-02-28T03:26:17;0.90;99.90
7155;DHT22;3619;53.784;10.440;2023-02-28T03:28:53;0.90;99.90
7155;DHT22;3619;53.784;10.440;2023-02-28T03:31:27;0.90;99.90
7155;DHT22;3619;53.784;10.440;2023-02-28T03:34:01;0.80;99.90
7155;DHT22;3619;53.784;10.440;2023-02-28T03:36:33;0.80;99.90
7155;DHT22;3619;53.784;10.440;2023-02-28T03:39:13;0.70;99.90
7155;DHT22;3619;53.784;10.440;2023-02-28T03:41:43;0.70;99.90
7155;DHT22;3619;53.784;10.440;2023-02-28T03:44:16;0.70;99.90
7155;DHT22;3619;53.784;10.440;2023-02-28T03:46:48;0.80;99.90
7155;DHT22;3619;53.784;10.440;2023-02-28T03:49:19;0.80;99.90
7155;DHT22;3619;53.784;10.440;2023-02-28T03:51:52;0.80;99.90
7155;DHT22;3619;53.784;10.440;2023-02-28T03:54:23;0.70;99.90
7155;DHT22;3619;53.784;10.440;2023-02-28T03:56:57;0.60;99.90
7155;DHT22;3619;53.784;10.440;2023-02-28T03:59:30;0.60;99.90
7155;DHT22;3619;53.784;10.440;2023-02-28T04:02:00;0.40;99.90
7155;DHT22;3619;53.784;10.440;2023-02-28T04:04:29;0.30;99.90
7155;DHT22;3619;53.784;10.440;2023-02-28T04:07:03;0.30;99.90
7155;DHT22;3619;53.784;10.440;2023-02-28T04:09:31;0.20;99.90
7155;DHT22;3619;53.784;10.440;2023-02-28T04:11:57;0.10;99.90
7155;DHT22;3619;53.784;10.440;2023-02-28T04:14:25;0.10;99.90
7155;DHT22;3619;53.784;10.440;2023-02-28T04:16:52;0.00;99.90
7155;DHT22;3619;53.784;10.440;2023-02-28T04:19:19;0.10;99.90
7155;DHT22;3619;53.784;10.440;2023-02-28T04:21:47;0.00;99.90
7155;DHT22;3619;53.784;10.440;2023-02-28T04:24:17;0.10;99.90
7155;DHT22;3619;53.784;10.440;2023-02-28T04:26:46;0.00;99.90
7155;DHT22;3619;53.784;10.440;2023-02-28T04:29:17;0.00;99.90
7155;DHT22;3619;53.784;10.440;2023-02-28T04:31:44;-0.10;99.90
7155;DHT22;3619;53.784;10.440;2023-02-28T04:34:11;-0.20;99.90
7155;DHT22;3619;53.784;10.440;2023-02-28T04:36:37;-0.20;99.90
7155;DHT22;3619;53.784;10.440;2023-02-28T04:39:08;-0.10;99.90
7155;DHT22;3619;53.784;10.440;2023-02-28T04:41:37;-0.10;99.90
7155;DHT22;3619;53.784;10.440;2023-02-28T04:44:04;-0.10;99.90
7155;DHT22;3619;53.784;10.440;2023-02-28T04:46:33;-0.20;99.90
7155;DHT22;3619;53.784;10.440;2023-02-28T04:49:00;-0.20;99.90
7155;DHT22;3619;53.784;10.440;2023-02-28T04:51:27;-0.20;99.90
7155;DHT22;3619;53.784;10.440;2023-02-28T04:53:54;-0.30;99.90
7155;DHT22;3619;53.784;10.440;2023-02-28T04:56:21;-0.40;99.90
7155;DHT22;3619;53.784;10.440;2023-02-28T04:58:49;-0.50;99.90
7155;DHT22;3619;53.784;10.440;2023-02-28T05:01:21;-0.60;99.90
7155;DHT22;3619;53.784;10.440;2023-02-28T05:03:49;-0.60;99.90
7155;DHT22;3619;53.784;10.440;2023-02-28T05:06:22;-0.70;99.90
7155;DHT22;3619;53.784;10.440;2023-02-28T05:08:50;-0.70;99.90
7155;DHT22;3619;53.784;10.440;2023-02-28T05:11:20;-0.70;99.90
7155;DHT22;3619;53.784;10.440;2023-02-28T05:13:49;-0.70;99.90
7155;DHT22;3619;53.784;10.440;2023-02-28T05:16:17;-0.90;99.90
7155;DHT22;3619;53.784;10.440;2023-02-28T05:18:45;-0.90;99.90
7155;DHT22;3619;53.784;10.440;2023-02-28T05:21:27;-1.00;99.90
7155;DHT22;3619;53.784;10.440;2023-02-28T05:23:55;-1.00;99.90
7155;DHT22;3619;53.784;10.440;2023-02-28T05:26:25;-1.10;99.90
7155;DHT22;3619;53.784;10.440;2023-02-28T05:29:20;-1.20;99.90
7155;DHT22;3619;53.784;10.440;2023-02-28T05:31:49;-1.20;99.90
7155;DHT22;3619;53.784;10.440;2023-02-28T05:34:16;-1.20;99.90
7155;DHT22;3619;53.784;10.440;2023-02-28T05:36:43;-1.20;99.90
7155;DHT22;3619;53.784;10.440;2023-02-28T05:39:10;-1.30;99.90
7155;DHT22;3619;53.784;10.440;2023-02-28T05:41:40;-1.30;99.90
7155;DHT22;3619;53.784;10.440;2023-02-28T05:44:09;-1.40;99.90
7155;DHT22;3619;53.784;10.440;2023-02-28T05:46:36;-1.40;99.90
7155;DHT22;3619;53.784;10.440;2023-02-28T05:49:03;-1.30;99.90
7155;DHT22;3619;53.784;10.440;2023-02-28T05:51:30;-1.30;99.90
7155;DHT22;3619;53.784;10.440;2023-02-28T05:54:00;-1.30;99.90
7155;DHT22;3619;53.784;10.440;2023-02-28T05:56:27;-1.30;99.90
7155;DHT22;3619;53.784;10.440;2023-02-28T05:58:54;-1.30;99.90
7155;DHT22;3619;53.784;10.440;2023-02-28T06:01:37;-1.30;99.90
7155;DHT22;3619;53.784;10.440;2023-02-28T06:04:06;-1.30;99.90
7155;DHT22;3619;53.784;10.440;2023-02-28T06:06:33;-1.30;99.90
7155;DHT22;3619;53.784;10.440;2023-02-28T06:09:01;-1.40;99.90
7155;DHT22;3619;53.784;10.440;2023-02-28T06:11:28;-1.30;99.90
7155;DHT22;3619;53.784;10.440;2023-02-28T06:13:58;-1.30;99.90
7155;DHT22;3619;53.784;10.440;2023-02-28T06:16:26;-1.30;99.90
7155;DHT22;3619;53.784;10.440;2023-02-28T06:18:56;-1.20;99.90
7155;DHT22;3619;53.784;10.440;2023-02-28T06:21:23;-1.20;99.90
7155;DHT22;3619;53.784;10.440;2023-02-28T06:23:50;-1.20;99.90
7155;DHT22;3619;53.784;10.440;2023-02-28T06:26:17;-1.20;99.90
7155;DHT22;3619;53.784;10.440;2023-02-28T06:28:44;-1.20;99.90
7155;DHT22;3619;53.784;10.440;2023-02-28T06:31:17;-1.10;99.90
7155;DHT22;3619;53.784;10.440;2023-02-28T06:33:51;-1.00;99.90
7155;DHT22;3619;53.784;10.440;2023-02-28T06:36:21;-1.00;99.90
7155;DHT22;3619;53.784;10.440;2023-02-28T06:38:48;-1.10;99.90
7155;DHT22;3619;53.784;10.440;2023-02-28T06:41:20;-1.00;99.90
7155;DHT22;3619;53.784;10.440;2023-02-28T06:43:47;-1.00;99.90
7155;DHT22;3619;53.784;10.440;2023-02-28T06:46:14;-0.90;99.90
7155;DHT22;3619;53.784;10.440;2023-02-28T06:48:42;-0.90;99.90
7155;DHT22;3619;53.784;10.440;2023-02-28T06:51:10;-0.70;99.90
7155;DHT22;3619;53.784;10.440;2023-02-28T06:53:43;-0.60;99.90
7155;DHT22;3619;53.784;10.440;2023-02-28T06:56:12;-0.60;99.90
7155;DHT22;3619;53.784;10.440;2023-02-28T06:58:42;-0.70;99.90
7155;DHT22;3619;53.784;10.440;2023-02-28T07:01:09;-0.70;99.90
7155;DHT22;3619;53.784;10.440;2023-02-28T07:03:36;-0.60;99.90
7155;DHT22;3619;53.784;10.440;2023-02-28T07:06:04;-0.50;99.90
7155;DHT22;3619;53.784;10.440;2023-02-28T07:08:35;-0.50;99.90
7155;DHT22;3619;53.784;10.440;2023-02-28T07:11:04;-0.40;99.90
7155;DHT22;3619;53.784;10.440;2023-02-28T07:13:31;-0.30;99.90
7155;DHT22;3619;53.784;10.440;2023-02-28T07:15:59;-0.20;99.90
7155;DHT22;3619;53.784;10.440;2023-02-28T07:18:28;-0.10;99.90
7155;DHT22;3619;53.784;10.440;2023-02-28T07:20:55;-0.10;99.90
7155;DHT22;3619;53.784;10.440;2023-02-28T07:23:23;0.20;99.90
7155;DHT22;3619;53.784;10.440;2023-02-28T07:25:50;0.30;99.90
7155;DHT22;3619;53.784;10.440;2023-02-28T07:28:20;0.40;99.90
7155;DHT22;3619;53.784;10.440;2023-02-28T07:30:47;0.50;99.90
7155;DHT22;3619;53.784;10.440;2023-02-28T07:33:14;0.60;99.90
7155;DHT22;3619;53.784;10.440;2023-02-28T07:35:41;0.70;99.90
7155;DHT22;3619;53.784;10.440;2023-02-28T07:38:08;0.80;99.90
7155;DHT22;3619;53.784;10.440;2023-02-28T07:40:36;1.00;99.90
7155;DHT22;3619;53.784;10.440;2023-02-28T07:43:03;1.20;99.90
7155;DHT22;3619;53.784;10.440;2023-02-28T07:45:31;1.30;99.90
7155;DHT22;3619;53.784;10.440;2023-02-28T07:48:00;1.50;99.90
7155;DHT22;3619;53.784;10.440;2023-02-28T07:50:27;1.70;99.90
7155;DHT22;3619;53.784;10.440;2023-02-28T07:52:56;1.90;99.90
7155;DHT22;3619;53.784;10.440;2023-02-28T07:55:23;2.10;99.90
7155;DHT22;3619;53.784;10.440;2023-02-28T07:57:49;2.20;99.90
7155;DHT22;3619;53.784;10.440;2023-02-28T08:00:16;2.30;99.90
7155;DHT22;3619;53.784;10.440;2023-02-28T08:02:45;2.50;99.90
7155;DHT22;3619;53.784;10.440;2023-02-28T08:05:11;2.70;99.90
7155;DHT22;3619;53.784;10.440;2023-02-28T08:07:38;2.90;99.90
7155;DHT22;3619;53.784;10.440;2023-02-28T08:10:06;3.00;99.90
7155;DHT22;3619;53.784;10.440;2023-02-28T08:12:35;2.90;99.90
7155;DHT22;3619;53.784;10.440;2023-02-28T08:15:03;2.80;99.90
7155;DHT22;3619;53.784;10.440;2023-02-28T08:17:30;2.90;99.90
7155;DHT22;3619;53.784;10.440;2023-02-28T08:19:58;3.00;99.90
7155;DHT22;3619;53.784;10.440;2023-02-28T08:22:27;3.10;99.90
7155;DHT22;3619;53.784;10.440;2023-02-28T08:24:54;3.20;99.90
7155;DHT22;3619;53.784;10.440;2023-02-28T08:27:21;3.40;99.90
7155;DHT22;3619;53.784;10.440;2023-02-28T08:29:47;3.70;99.90
7155;DHT22;3619;53.784;10.440;2023-02-28T08:32:14;3.80;99.90
7155;DHT22;3619;53.784;10.440;2023-02-28T08:34:41;4.00;99.90
7155;DHT22;3619;53.784;10.440;2023-02-28T08:37:10;4.10;99.90
7155;DHT22;3619;53.784;10.440;2023-02-28T08:39:37;4.00;99.90
7155;DHT22;3619;53.784;10.440;2023-02-28T08:42:04;4.00;99.90
7155;DHT22;3619;53.784;10.440;2023-02-28T08:44:31;4.10;99.90
7155;DHT22;3619;53.784;10.440;2023-02-28T08:46:58;4.20;99.90
7155;DHT22;3619;53.784;10.440;2023-02-28T08:49:25;4.20;99.90
7155;DHT22;3619;53.784;10.440;2023-02-28T08:51:51;4.40;99.90
7155;DHT22;3619;53.784;10.440;2023-02-28T08:54:20;4.40;99.90
7155;DHT22;3619;53.784;10.440;2023-02-28T08:56:48;4.50;99.90
7155;DHT22;3619;53.784;10.440;2023-02-28T08:59:15;4.60;99.90
7155;DHT22;3619;53.784;10.440;2023-02-28T09:01:42;4.70;99.90
7155;DHT22;3619;53.784;10.440;2023-02-28T09:04:10;4.80;99.90
7155;DHT22;3619;53.784;10.440;2023-02-28T09:06:37;4.80;99.90
7155;DHT22;3619;53.784;10.440;2023-02-28T09:09:04;4.90;99.90
7155;DHT22;3619;53.784;10.440;2023-02-28T09:11:34;4.90;99.90
7155;DHT22;3619;53.784;10.440;2023-02-28T09:14:02;4.90;99.90
7155;DHT22;3619;53.784;10.440;2023-02-28T09:16:30;5.00;99.90
7155;DHT22;3619;53.784;10.440;2023-02-28T09:18:58;5.20;99.90
7155;DHT22;3619;53.784;10.440;2023-02-28T09:21:25;5.50;99.90
7155;DHT22;3619;53.784;10.440;2023-02-28T09:23:52;5.70;99.90
7155;DHT22;3619;53.784;10.440;2023-02-28T09:26:20;5.70;99.90
7155;DHT22;3619;53.784;10.440;2023-02-28T09:28:49;5.80;99.90
7155;DHT22;3619;53.784;10.440;2023-02-28T09:31:17;5.90;99.90
7155;DHT22;3619;53.784;10.440;2023-02-28T09:33:46;6.00;99.90
7155;DHT22;3619;53.784;10.440;2023-02-28T09:36:12;6.10;99.90
7155;DHT22;3619;53.784;10.440;2023-02-28T09:38:39;6.20;99.90
7155;DHT22;3619;53.784;10.440;2023-02-28T09:41:12;6.40;99.90
7155;DHT22;3619;53.784;10.440;2023-02-28T09:43:43;6.70;99.90
7155;DHT22;3619;53.784;10.440;2023-02-28T09:46:19;6.80;99.90
7155;DHT22;3619;53.784;10.440;2023-02-28T09:48:49;6.90;99.90
7155;DHT22;3619;53.784;10.440;2023-02-28T09:51:32;6.90;99.90
7155;DHT22;3619;53.784;10.440;2023-02-28T09:54:00;7.00;99.90
7155;DHT22;3619;53.784;10.440;2023-02-28T09:56:31;7.10;99.90
7155;DHT22;3619;53.784;10.440;2023-02-28T09:59:01;7.00;99.90
7155;DHT22;3619;53.784;10.440;2023-02-28T10:01:37;7.20;99.90
7155;DHT22;3619;53.784;10.440;2023-02-28T10:04:11;7.30;99.90
7155;DHT22;3619;53.784;10.440;2023-02-28T10:06:46;7.60;99.90
7155;DHT22;3619;53.784;10.440;2023-02-28T10:09:17;7.90;99.90
7155;DHT22;3619;53.784;10.440;2023-02-28T10:11:51;8.20;99.90
7155;DHT22;3619;53.784;10.440;2023-02-28T10:14:20;8.30;99.90
7155;DHT22;3619;53.784;10.440;2023-02-28T10:16:55;8.50;99.90
7155;DHT22;3619;53.784;10.440;2023-02-28T10:19:27;8.60;99.90
7155;DHT22;3619;53.784;10.440;2023-02-28T10:21:59;8.50;99.90
7155;DHT22;3619;53.784;10.440;2023-02-28T10:24:32;8.00;99.90
7155;DHT22;3619;53.784;10.440;2023-02-28T10:27:06;8.10;99.90
7155;DHT22;3619;53.784;10.440;2023-02-28T10:29:40;8.20;99.90
7155;DHT22;3619;53.784;10.440;2023-02-28T10:32:12;8.30;99.90
7155;DHT22;3619;53.784;10.440;2023-02-28T10:34:40;8.50;99.90
7155;DHT22;3619;53.784;10.440;2023-02-28T10:37:10;8.70;99.90
7155;DHT22;3619;53.784;10.440;2023-02-28T10:39:40;8.90;99.90
7155;DHT22;3619;53.784;10.440;2023-02-28T10:42:23;9.00;99.90
7155;DHT22;3619;53.784;10.440;2023-02-28T10:45:06;8.70;99.90
7155;DHT22;3619;53.784;10.440;2023-02-28T10:47:40;8.30;99.90
7155;DHT22;3619;53.784;10.440;2023-02-28T10:50:27;8.50;99.90
7155;DHT22;3619;53.784;10.440;2023-02-28T10:52:54;8.40;99.90
7155;DHT22;3619;53.784;10.440;2023-02-28T10:55:23;8.30;99.90
7155;DHT22;3619;53.784;10.440;2023-02-28T10:57:53;8.10;99.90
7155;DHT22;3619;53.784;10.440;2023-02-28T11:00:23;8.50;99.90
7155;DHT22;3619;53.784;10.440;2023-02-28T11:02:55;8.70;99.90
7155;DHT22;3619;53.784;10.440;2023-02-28T11:05:27;9.00;99.90
7155;DHT22;3619;53.784;10.440;2023-02-28T11:07:56;9.00;99.90
7155;DHT22;3619;53.784;10.440;2023-02-28T11:10:26;8.60;99.90
7155;DHT22;3619;53.784;10.440;2023-02-28T11:12:55;8.60;99.90
7155;DHT22;3619;53.784;10.440;2023-02-28T11:15:27;8.60;99.90
7155;DHT22;3619;53.784;10.440;2023-02-28T11:17:57;9.00;99.90
7155;DHT22;3619;53.784;10.440;2023-02-28T11:20:28;9.30;99.90
7155;DHT22;3619;53.784;10.440;2023-02-28T11:22:59;9.10;99.90
7155;DHT22;3619;53.784;10.440;2023-02-28T11:25:30;9.10;99.90
7155;DHT22;3619;53.784;10.440;2023-02-28T11:27:59;9.10;99.90
7155;DHT22;3619;53.784;10.440;2023-02-28T11:30:33;9.20;99.90
7155;DHT22;3619;53.784;10.440;2023-02-28T11:33:20;9.10;99.90
7155;DHT22;3619;53.784;10.440;2023-02-28T11:35:48;9.40;99.90
7155;DHT22;3619;53.784;10.440;2023-02-28T11:38:18;9.40;99.90
7155;DHT22;3619;53.784;10.440;2023-02-28T11:40:49;9.00;99.90
7155;DHT22;3619;53.784;10.440;2023-02-28T11:43:30;9.20;99.90
7155;DHT22;3619;53.784;10.440;2023-02-28T11:46:16;9.50;99.90
7155;DHT22;3619;53.784;10.440;2023-02-28T11:48:52;9.70;99.90
7155;DHT22;3619;53.784;10.440;2023-02-28T11:51:26;9.20;99.90
7155;DHT22;3619;53.784;10.440;2023-02-28T11:54:08;9.30;99.90
7155;DHT22;3619;53.784;10.440;2023-02-28T11:56:42;9.50;99.90
7155;DHT22;3619;53.784;10.440;2023-02-28T11:59:29;9.40;99.90
7155;DHT22;3619;53.784;10.440;2023-02-28T12:02:23;9.20;99.90
7155;DHT22;3619;53.784;10.440;2023-02-28T12:07:49;9.40;99.90
7155;DHT22;3619;53.784;10.440;2023-02-28T12:10:21;9.60;99.90
7155;DHT22;3619;53.784;10.440;2023-02-28T12:12:57;9.70;99.90
7155;DHT22;3619;53.784;10.440;2023-02-28T12:15:56;9.80;99.90
7155;DHT22;3619;53.784;10.440;2023-02-28T12:18:42;10.30;99.90
7155;DHT22;3619;53.784;10.440;2023-02-28T12:21:20;10.30;99.90
7155;DHT22;3619;53.784;10.440;2023-02-28T12:24:00;10.50;99.90
7155;DHT22;3619;53.784;10.440;2023-02-28T12:26:34;10.00;99.90
7155;DHT22;3619;53.784;10.440;2023-02-28T12:29:09;10.10;99.90
7155;DHT22;3619;53.784;10.440;2023-02-28T12:31:40;10.00;99.90
7155;DHT22;3619;53.784;10.440;2023-02-28T12:34:12;9.70;99.90
7155;DHT22;3619;53.784;10.440;2023-02-28T12:36:41;10.00;99.90
7155;DHT22;3619;53.784;10.440;2023-02-28T12:39:13;10.10;99.90
7155;DHT22;3619;53.784;10.440;2023-02-28T12:41:47;9.80;99.90
7155;DHT22;3619;53.784;10.440;2023-02-28T12:44:20;9.50;99.90
7155;DHT22;3619;53.784;10.440;2023-02-28T12:46:51;9.10;99.90
7155;DHT22;3619;53.784;10.440;2023-02-28T12:49:25;9.60;99.90
7155;DHT22;3619;53.784;10.440;2023-02-28T12:51:53;9.80;99.90
7155;DHT22;3619;53.784;10.440;2023-02-28T12:54:25;9.70;99.90
7155;DHT22;3619;53.784;10.440;2023-02-28T12:57:01;9.50;99.90
7155;DHT22;3619;53.784;10.440;2023-02-28T12:59:34;9.40;99.90
7155;DHT22;3619;53.784;10.440;2023-02-28T13:02:40;9.50;99.90
7155;DHT22;3619;53.784;10.440;2023-02-28T13:05:39;9.40;99.90
7155;DHT22;3619;53.784;10.440;2023-02-28T13:11:39;10.10;99.90
7155;DHT22;3619;53.784;10.440;2023-02-28T13:14:22;10.60;99.90
7155;DHT22;3619;53.784;10.440;2023-02-28T13:16:58;10.60;99.90
7155;DHT22;3619;53.784;10.440;2023-02-28T13:19:27;10.40;99.90
7155;DHT22;3619;53.784;10.440;2023-02-28T13:21:57;9.90;99.90
7155;DHT22;3619;53.784;10.440;2023-02-28T13:24:51;9.60;99.90
7155;DHT22;3619;53.784;10.440;2023-02-28T13:27:34;9.80;99.90
7155;DHT22;3619;53.784;10.440;2023-02-28T13:33:22;9.80;99.90
7155;DHT22;3619;53.784;10.440;2023-02-28T13:36:08;9.70;99.90
7155;DHT22;3619;53.784;10.440;2023-02-28T13:38:42;9.60;99.80
7155;DHT22;3619;53.784;10.440;2023-02-28T13:41:46;9.70;99.90
7155;DHT22;3619;53.784;10.440;2023-02-28T13:44:15;9.60;99.90
7155;DHT22;3619;53.784;10.440;2023-02-28T13:47:20;9.40;99.80
7155;DHT22;3619;53.784;10.440;2023-02-28T13:49:51;9.70;99.90
7155;DHT22;3619;53.784;10.440;2023-02-28T13:52:22;9.90;99.90
7155;DHT22;3619;53.784;10.440;2023-02-28T13:54:58;10.40;99.90
7155;DHT22;3619;53.784;10.440;2023-02-28T13:57:38;10.00;99.90
7155;DHT22;3619;53.784;10.440;2023-02-28T14:00:23;9.50;99.90
7155;DHT22;3619;53.784;10.440;2023-02-28T14:03:12;9.00;99.90
7155;DHT22;3619;53.784;10.440;2023-02-28T14:05:41;8.70;99.90
7155;DHT22;3619;53.784;10.440;2023-02-28T14:08:13;8.90;99.90
7155;DHT22;3619;53.784;10.440;2023-02-28T14:10:45;9.00;99.90
7155;DHT22;3619;53.784;10.440;2023-02-28T14:13:39;9.50;99.90
7155;DHT22;3619;53.784;10.440;2023-02-28T14:16:10;9.40;99.90
7155;DHT22;3619;53.784;10.440;2023-02-28T14:18:40;9.00;99.90
7155;DHT22;3619;53.784;10.440;2023-02-28T14:21:11;8.70;99.90
7155;DHT22;3619;53.784;10.440;2023-02-28T14:26:54;9.20;99.90
7155;DHT22;3619;53.784;10.440;2023-02-28T14:29:35;9.10;99.90
7155;DHT22;3619;53.784;10.440;2023-02-28T14:32:11;9.20;99.90
7155;DHT22;3619;53.784;10.440;2023-02-28T14:34:44;9.30;99.90
7155;DHT22;3619;53.784;10.440;2023-02-28T14:37:19;9.40;99.90
7155;DHT22;3619;53.784;10.440;2023-02-28T14:39:46;9.30;99.90
7155;DHT22;3619;53.784;10.440;2023-02-28T14:42:33;9.30;99.90
7155;DHT22;3619;53.784;10.440;2023-02-28T14:45:02;9.30;99.90
7155;DHT22;3619;53.784;10.440;2023-02-28T14:47:33;9.70;99.90
7155;DHT22;3619;53.784;10.440;2023-02-28T14:50:05;10.20;99.90
7155;DHT22;3619;53.784;10.440;2023-02-28T14:52:32;10.60;99.90
7155;DHT22;3619;53.784;10.440;2023-02-28T14:55:01;10.40;99.90
7155;DHT22;3619;53.784;10.440;2023-02-28T14:57:30;10.20;99.90
7155;DHT22;3619;53.784;10.440;2023-02-28T15:00:01;9.90;99.90
7155;DHT22;3619;53.784;10.440;2023-02-28T15:02:31;9.90;99.90
7155;DHT22;3619;53.784;10.440;2023-02-28T15:05:04;9.80;99.90
7155;DHT22;3619;53.784;10.440;2023-02-28T15:07:37;9.50;99.90
7155;DHT22;3619;53.784;10.440;2023-02-28T15:10:13;9.20;99.90
7155;DHT22;3619;53.784;10.440;2023-02-28T15:12:41;8.80;99.90
7155;DHT22;3619;53.784;10.440;2023-02-28T15:15:16;8.60;99.90
7155;DHT22;3619;53.784;10.440;2023-02-28T15:17:46;8.50;99.90
7155;DHT22;3619;53.784;10.440;2023-02-28T15:20:15;8.90;99.90
7155;DHT22;3619;53.784;10.440;2023-02-28T15:22:42;9.20;99.90
7155;DHT22;3619;53.784;10.440;2023-02-28T15:25:15;9.40;99.90
7155;DHT22;3619;53.784;10.440;2023-02-28T15:27:47;9.40;99.90
7155;DHT22;3619;53.784;10.440;2023-02-28T15:30:18;9.40;99.90
7155;DHT22;3619;53.784;10.440;2023-02-28T15:33:02;9.10;99.90
7155;DHT22;3619;53.784;10.440;2023-02-28T15:35:32;8.80;99.90
7155;DHT22;3619;53.784;10.440;2023-02-28T15:38:03;8.60;99.90
7155;DHT22;3619;53.784;10.440;2023-02-28T15:40:32;8.40;99.90
7155;DHT22;3619;53.784;10.440;2023-02-28T15:43:06;8.40;99.90
7155;DHT22;3619;53.784;10.440;2023-02-28T15:45:37;8.40;99.90
7155;DHT22;3619;53.784;10.440;2023-02-28T15:48:15;8.60;99.90
7155;DHT22;3619;53.784;10.440;2023-02-28T15:50:42;8.40;99.90
7155;DHT22;3619;53.784;10.440;2023-02-28T15:53:14;8.30;99.90
7155;DHT22;3619;53.784;10.440;2023-02-28T15:55:42;8.10;99.80
7155;DHT22;3619;53.784;10.440;2023-02-28T15:58:12;7.90;99.90
7155;DHT22;3619;53.784;10.440;2023-02-28T16:00:43;7.70;99.70
7155;DHT22;3619;53.784;10.440;2023-02-28T16:03:25;7.70;99.90
7155;DHT22;3619;53.784;10.440;2023-02-28T16:09:00;7.50;99.90
7155;DHT22;3619;53.784;10.440;2023-02-28T16:11:28;7.30;99.90
7155;DHT22;3619;53.784;10.440;2023-02-28T16:13:56;7.20;99.90
7155;DHT22;3619;53.784;10.440;2023-02-28T16:16:25;7.00;99.90
7155;DHT22;3619;53.784;10.440;2023-02-28T16:18:52;6.90;99.90
7155;DHT22;3619;53.784;10.440;2023-02-28T16:21:20;6.70;99.90
7155;DHT22;3619;53.784;10.440;2023-02-28T16:23:47;6.60;99.90
7155;DHT22;3619;53.784;10.440;2023-02-28T16:26:19;6.50;99.90
7155;DHT22;3619;53.784;10.440;2023-02-28T16:28:47;6.30;99.90
7155;DHT22;3619;53.784;10.440;2023-02-28T16:31:18;6.20;99.90
7155;DHT22;3619;53.784;10.440;2023-02-28T16:33:47;6.00;99.90
7155;DHT22;3619;53.784;10.440;2023-02-28T16:36:15;5.90;99.90
7155;DHT22;3619;53.784;10.440;2023-02-28T16:38:42;5.80;99.90
7155;DHT22;3619;53.784;10.440;2023-02-28T16:41:13;5.70;99.90
7155;DHT22;3619;53.784;10.440;2023-02-28T16:43:45;5.60;99.90
7155;DHT22;3619;53.784;10.440;2023-02-28T16:46:13;5.40;99.90
7155;DHT22;3619;53.784;10.440;2023-02-28T16:48:40;5.40;99.90